sensor_id;sensor_type;location;lat;lon;timestamp;P1;durP1;ratioP1;P2;durP2;ratioP2
62911;SDS011;49111;51.028;4.218;2022-12-10T06:49:52;74.20;;;24.00;;
62911;SDS011;49111;51.028;4.218;2022-12-10T06:52:18;88.18;;;25.17;;
62911;SDS011;49111;51.028;4.218;2022-12-10T06:54:44;77.43;;;24.27;;
62911;SDS011;49111;51.028;4.218;2022-12-10T06:57:10;56.88;;;23.15;;
62911;SDS011;49111;51.028;4.218;2022-12-10T06:59:36;70.80;;;25.63;;
62911;SDS011;49111;51.028;4.218;2022-12-10T07:02:03;73.22;;;24.27;;
62911;SDS011;49111;51.028;4.218;2022-12-10T07:04:35;68.80;;;24.27;;
62911;SDS011;49111;51.028;4.218;2022-12-10T07:07:01;61.55;;;23.23;;
62911;SDS011;49111;51.028;4.218;2022-12-10T07:09:26;56.65;;;21.50;;
62911;SDS011;49111;51.028;4.218;2022-12-10T07:11:52;75.10;;;24.13;;
62911;SDS011;49111;51.028;4.218;2022-12-10T07:14:19;68.40;;;25.23;;
62911;SDS011;49111;51.028;4.218;2022-12-10T07:16:45;68.18;;;24.13;;
62911;SDS011;49111;51.028;4.218;2022-12-10T07:19:19;68.25;;;24.67;;
62911;SDS011;49111;51.028;4.218;2022-12-10T07:28:21;58.20;;;21.90;;
62911;SDS011;49111;51.028;4.218;2022-12-10T07:30:46;69.38;;;22.48;;
62911;SDS011;49111;51.028;4.218;2022-12-10T07:33:12;63.15;;;23.27;;
62911;SDS011;49111;51.028;4.218;2022-12-10T07:35:39;53.30;;;23.35;;
62911;SDS011;49111;51.028;4.218;2022-12-10T07:38:05;51.33;;;21.83;;
62911;SDS011;49111;51.028;4.218;2022-12-10T07:40:30;58.45;;;24.23;;
62911;SDS011;49111;51.028;4.218;2022-12-10T07:42:57;68.00;;;23.48;;
62911;SDS011;49111;51.028;4.218;2022-12-10T07:45:22;64.72;;;22.58;;
62911;SDS011;49111;51.028;4.218;2022-12-10T07:47:48;52.65;;;18.75;;
62911;SDS011;49111;51.028;4.218;2022-12-10T07:50:14;53.45;;;20.00;;
62911;SDS011;49111;51.028;4.218;2022-12-10T07:52:40;65.32;;;21.27;;
62911;SDS011;49111;51.028;4.218;2022-12-10T07:55:05;61.15;;;20.80;;
62911;SDS011;49111;51.028;4.218;2022-12-10T07:57:31;53.38;;;19.20;;
62911;SDS011;49111;51.028;4.218;2022-12-10T07:59:57;52.75;;;20.10;;
62911;SDS011;49111;51.028;4.218;2022-12-10T08:02:23;58.30;;;21.23;;
62911;SDS011;49111;51.028;4.218;2022-12-10T08:04:49;66.72;;;20.67;;
62911;SDS011;49111;51.028;4.218;2022-12-10T08:07:14;78.95;;;22.52;;
62911;SDS011;49111;51.028;4.218;2022-12-10T08:09:40;59.28;;;20.50;;
62911;SDS011;49111;51.028;4.218;2022-12-10T08:12:06;51.00;;;18.30;;
62911;SDS011;49111;51.028;4.218;2022-12-10T08:14:32;51.25;;;18.42;;
62911;SDS011;49111;51.028;4.218;2022-12-10T08:16:58;42.35;;;16.90;;
62911;SDS011;49111;51.028;4.218;2022-12-10T08:19:24;51.60;;;19.17;;
62911;SDS011;49111;51.028;4.218;2022-12-10T08:21:50;51.25;;;19.00;;
62911;SDS011;49111;51.028;4.218;2022-12-10T08:24:15;41.97;;;16.40;;
62911;SDS011;49111;51.028;4.218;2022-12-10T08:26:42;42.65;;;17.98;;
62911;SDS011;49111;51.028;4.218;2022-12-10T08:29:08;49.08;;;17.60;;
62911;SDS011;49111;51.028;4.218;2022-12-10T08:31:34;45.78;;;18.75;;
62911;SDS011;49111;51.028;4.218;2022-12-10T08:33:59;57.97;;;20.88;;
62911;SDS011;49111;51.028;4.218;2022-12-10T08:36:25;55.70;;;17.52;;
62911;SDS011;49111;51.028;4.218;2022-12-10T08:38:51;54.63;;;18.35;;
62911;SDS011;49111;51.028;4.218;2022-12-10T08:41:18;62.70;;;19.48;;
62911;SDS011;49111;51.028;4.218;2022-12-10T08:43:45;61.90;;;21.52;;
62911;SDS011;49111;51.028;4.218;2022-12-10T08:46:12;44.70;;;19.05;;
62911;SDS011;49111;51.028;4.218;2022-12-10T08:48:39;49.85;;;19.42;;
62911;SDS011;49111;51.028;4.218;2022-12-10T08:51:05;52.00;;;18.65;;
62911;SDS011;49111;51.028;4.218;2022-12-10T08:53:32;37.13;;;16.13;;
62911;SDS011;49111;51.028;4.218;2022-12-10T08:55:59;43.50;;;17.67;;
62911;SDS011;49111;51.028;4.218;2022-12-10T08:58:25;55.90;;;18.33;;
62911;SDS011;49111;51.028;4.218;2022-12-10T09:00:51;57.72;;;19.08;;
62911;SDS011;49111;51.028;4.218;2022-12-10T09:03:17;46.65;;;19.10;;
62911;SDS011;49111;51.028;4.218;2022-12-10T09:05:43;40.30;;;17.13;;
62911;SDS011;49111;51.028;4.218;2022-12-10T09:08:09;55.50;;;18.95;;
62911;SDS011;49111;51.028;4.218;2022-12-10T09:10:36;50.50;;;18.98;;
62911;SDS011;49111;51.028;4.218;2022-12-10T09:13:02;50.97;;;18.13;;
62911;SDS011;49111;51.028;4.218;2022-12-10T09:15:28;64.72;;;22.88;;
62911;SDS011;49111;51.028;4.218;2022-12-10T09:17:54;55.80;;;21.08;;
62911;SDS011;49111;51.028;4.218;2022-12-10T09:20:20;64.40;;;19.50;;
62911;SDS011;49111;51.028;4.218;2022-12-10T09:22:46;46.08;;;20.00;;
62911;SDS011;49111;51.028;4.218;2022-12-10T09:25:12;37.83;;;17.33;;
62911;SDS011;49111;51.028;4.218;2022-12-10T09:27:40;52.65;;;20.80;;
62911;SDS011;49111;51.028;4.218;2022-12-10T09:30:06;50.42;;;19.00;;
62911;SDS011;49111;51.028;4.218;2022-12-10T09:32:33;48.60;;;19.20;;
62911;SDS011;49111;51.028;4.218;2022-12-10T09:34:59;44.95;;;18.42;;
62911;SDS011;49111;51.028;4.218;2022-12-10T09:37:25;43.28;;;16.02;;
62911;SDS011;49111;51.028;4.218;2022-12-10T09:39:50;44.33;;;16.58;;
62911;SDS011;49111;51.028;4.218;2022-12-10T09:42:26;42.85;;;17.27;;
62911;SDS011;49111;51.028;4.218;2022-12-10T09:50:55;45.55;;;16.40;;
62911;SDS011;49111;51.028;4.218;2022-12-10T09:53:29;49.38;;;16.92;;
62911;SDS011;49111;51.028;4.218;2022-12-10T09:55:55;31.98;;;15.25;;
62911;SDS011;49111;51.028;4.218;2022-12-10T09:58:23;45.75;;;18.88;;
62911;SDS011;49111;51.028;4.218;2022-12-10T10:00:52;40.97;;;18.05;;
62911;SDS011;49111;51.028;4.218;2022-12-10T10:03:28;43.50;;;16.83;;
62911;SDS011;49111;51.028;4.218;2022-12-10T10:06:00;39.22;;;16.00;;
62911;SDS011;49111;51.028;4.218;2022-12-10T10:09:02;49.30;;;18.95;;
62911;SDS011;49111;51.028;4.218;2022-12-10T10:11:25;47.30;;;18.88;;
62911;SDS011;49111;51.028;4.218;2022-12-10T10:14:10;46.83;;;18.23;;
62911;SDS011;49111;51.028;4.218;2022-12-10T10:16:42;47.10;;;17.23;;
62911;SDS011;49111;51.028;4.218;2022-12-10T10:19:16;55.22;;;19.92;;
62911;SDS011;49111;51.028;4.218;2022-12-10T10:21:49;48.90;;;20.15;;
62911;SDS011;49111;51.028;4.218;2022-12-10T10:24:17;43.10;;;18.52;;
62911;SDS011;49111;51.028;4.218;2022-12-10T10:26:46;47.08;;;18.92;;
62911;SDS011;49111;51.028;4.218;2022-12-10T10:29:13;50.15;;;18.33;;
62911;SDS011;49111;51.028;4.218;2022-12-10T10:31:42;40.38;;;18.50;;
62911;SDS011;49111;51.028;4.218;2022-12-10T10:34:16;34.17;;;16.77;;
62911;SDS011;49111;51.028;4.218;2022-12-10T10:36:44;43.28;;;15.82;;
62911;SDS011;49111;51.028;4.218;2022-12-10T10:41:50;36.75;;;17.60;;
62911;SDS011;49111;51.028;4.218;2022-12-10T10:44:19;39.00;;;15.13;;
62911;SDS011;49111;51.028;4.218;2022-12-10T10:46:48;39.72;;;16.25;;
62911;SDS011;49111;51.028;4.218;2022-12-10T10:51:47;44.57;;;16.93;;
62911;SDS011;49111;51.028;4.218;2022-12-10T10:54:30;43.53;;;15.88;;
62911;SDS011;49111;51.028;4.218;2022-12-10T10:59:51;45.05;;;17.20;;
62911;SDS011;49111;51.028;4.218;2022-12-10T11:02:21;39.55;;;16.23;;
62911;SDS011;49111;51.028;4.218;2022-12-10T11:04:52;37.83;;;16.75;;
62911;SDS011;49111;51.028;4.218;2022-12-10T11:07:39;40.50;;;17.77;;
62911;SDS011;49111;51.028;4.218;2022-12-10T11:10:21;42.03;;;15.93;;
62911;SDS011;49111;51.028;4.218;2022-12-10T11:12:58;43.05;;;15.20;;
62911;SDS011;49111;51.028;4.218;2022-12-10T11:15:32;34.25;;;16.30;;
62911;SDS011;49111;51.028;4.218;2022-12-10T11:17:58;41.65;;;15.32;;
62911;SDS011;49111;51.028;4.218;2022-12-10T11:20:30;37.83;;;15.50;;
62911;SDS011;49111;51.028;4.218;2022-12-10T11:22:59;38.13;;;15.20;;
62911;SDS011;49111;51.028;4.218;2022-12-10T11:31:10;45.30;;;16.75;;
62911;SDS011;49111;51.028;4.218;2022-12-10T11:39:30;35.63;;;15.63;;
62911;SDS011;49111;51.028;4.218;2022-12-10T11:45:02;40.67;;;18.17;;
62911;SDS011;49111;51.028;4.218;2022-12-10T11:48:08;55.08;;;20.23;;
62911;SDS011;49111;51.028;4.218;2022-12-10T11:50:52;45.60;;;18.08;;
62911;SDS011;49111;51.028;4.218;2022-12-10T11:53:37;39.47;;;17.60;;
62911;SDS011;49111;51.028;4.218;2022-12-10T12:06:58;40.13;;;15.90;;
62911;SDS011;49111;51.028;4.218;2022-12-10T12:18:28;33.92;;;17.35;;
62911;SDS011;49111;51.028;4.218;2022-12-10T12:21:07;35.25;;;15.02;;
62911;SDS011;49111;51.028;4.218;2022-12-10T12:26:24;42.72;;;16.17;;
62911;SDS011;49111;51.028;4.218;2022-12-10T12:29:20;35.22;;;17.10;;
62911;SDS011;49111;51.028;4.218;2022-12-10T12:32:10;32.92;;;15.27;;
62911;SDS011;49111;51.028;4.218;2022-12-10T12:34:58;34.60;;;14.60;;
62911;SDS011;49111;51.028;4.218;2022-12-10T12:37:30;42.22;;;16.73;;
62911;SDS011;49111;51.028;4.218;2022-12-10T12:40:03;40.85;;;16.92;;
62911;SDS011;49111;51.028;4.218;2022-12-10T12:45:24;40.80;;;16.92;;
62911;SDS011;49111;51.028;4.218;2022-12-10T12:48:25;36.95;;;16.40;;
62911;SDS011;49111;51.028;4.218;2022-12-10T12:51:00;37.20;;;19.02;;
62911;SDS011;49111;51.028;4.218;2022-12-10T12:53:31;35.22;;;15.57;;
62911;SDS011;49111;51.028;4.218;2022-12-10T12:58:34;35.50;;;15.32;;
62911;SDS011;49111;51.028;4.218;2022-12-10T13:04:06;41.25;;;15.90;;
62911;SDS011;49111;51.028;4.218;2022-12-10T13:06:34;35.60;;;16.63;;
62911;SDS011;49111;51.028;4.218;2022-12-10T13:14:30;37.75;;;16.10;;
62911;SDS011;49111;51.028;4.218;2022-12-10T13:17:07;34.47;;;14.82;;
62911;SDS011;49111;51.028;4.218;2022-12-10T13:20:24;33.70;;;14.00;;
62911;SDS011;49111;51.028;4.218;2022-12-10T13:25:55;35.28;;;16.65;;
62911;SDS011;49111;51.028;4.218;2022-12-10T13:36:36;37.53;;;17.35;;
62911;SDS011;49111;51.028;4.218;2022-12-10T13:39:19;37.88;;;16.20;;
62911;SDS011;49111;51.028;4.218;2022-12-10T13:44:58;35.33;;;16.27;;
62911;SDS011;49111;51.028;4.218;2022-12-10T13:50:15;39.15;;;15.13;;
62911;SDS011;49111;51.028;4.218;2022-12-10T14:01:16;35.33;;;16.30;;
62911;SDS011;49111;51.028;4.218;2022-12-10T14:06:40;36.80;;;15.43;;
62911;SDS011;49111;51.028;4.218;2022-12-10T14:09:13;45.53;;;18.73;;
62911;SDS011;49111;51.028;4.218;2022-12-10T14:14:24;40.33;;;18.02;;
62911;SDS011;49111;51.028;4.218;2022-12-10T14:17:06;30.10;;;14.97;;
62911;SDS011;49111;51.028;4.218;2022-12-10T14:19:37;40.97;;;16.15;;
62911;SDS011;49111;51.028;4.218;2022-12-10T14:22:05;39.25;;;15.73;;
62911;SDS011;49111;51.028;4.218;2022-12-10T14:24:33;29.98;;;16.75;;
62911;SDS011;49111;51.028;4.218;2022-12-10T14:29:50;47.95;;;19.88;;
62911;SDS011;49111;51.028;4.218;2022-12-10T14:32:20;45.65;;;22.02;;
62911;SDS011;49111;51.028;4.218;2022-12-10T14:34:57;36.50;;;17.33;;
62911;SDS011;49111;51.028;4.218;2022-12-10T14:37:25;41.28;;;17.17;;
62911;SDS011;49111;51.028;4.218;2022-12-10T14:39:54;41.58;;;16.77;;
62911;SDS011;49111;51.028;4.218;2022-12-10T14:42:20;49.58;;;17.10;;
62911;SDS011;49111;51.028;4.218;2022-12-10T14:44:46;47.15;;;19.02;;
62911;SDS011;49111;51.028;4.218;2022-12-10T14:49:47;40.35;;;16.92;;
62911;SDS011;49111;51.028;4.218;2022-12-10T14:52:20;40.47;;;18.60;;
62911;SDS011;49111;51.028;4.218;2022-12-10T14:54:49;41.90;;;20.95;;
62911;SDS011;49111;51.028;4.218;2022-12-10T14:57:22;44.13;;;20.13;;
62911;SDS011;49111;51.028;4.218;2022-12-10T15:04:47;43.28;;;15.77;;
62911;SDS011;49111;51.028;4.218;2022-12-10T15:07:14;44.03;;;18.42;;
62911;SDS011;49111;51.028;4.218;2022-12-10T15:09:49;46.28;;;18.90;;
62911;SDS011;49111;51.028;4.218;2022-12-10T15:12:49;48.70;;;19.95;;
62911;SDS011;49111;51.028;4.218;2022-12-10T15:15:21;46.22;;;19.10;;
62911;SDS011;49111;51.028;4.218;2022-12-10T15:17:57;35.30;;;17.17;;
62911;SDS011;49111;51.028;4.218;2022-12-10T15:25:51;40.95;;;18.45;;
62911;SDS011;49111;51.028;4.218;2022-12-10T15:28:39;51.05;;;18.95;;
62911;SDS011;49111;51.028;4.218;2022-12-10T15:33:51;43.63;;;20.25;;
62911;SDS011;49111;51.028;4.218;2022-12-10T15:36:21;42.55;;;18.02;;
62911;SDS011;49111;51.028;4.218;2022-12-10T15:38:50;40.15;;;17.33;;
62911;SDS011;49111;51.028;4.218;2022-12-10T15:41:21;37.42;;;17.38;;
62911;SDS011;49111;51.028;4.218;2022-12-10T15:44:04;50.97;;;21.25;;
62911;SDS011;49111;51.028;4.218;2022-12-10T15:46:48;38.30;;;16.17;;
62911;SDS011;49111;51.028;4.218;2022-12-10T15:49:23;37.85;;;19.00;;
62911;SDS011;49111;51.028;4.218;2022-12-10T15:51:48;40.95;;;19.23;;
62911;SDS011;49111;51.028;4.218;2022-12-10T15:54:34;44.88;;;18.50;;
62911;SDS011;49111;51.028;4.218;2022-12-10T15:57:14;43.95;;;19.08;;
62911;SDS011;49111;51.028;4.218;2022-12-10T15:59:46;43.08;;;20.17;;
62911;SDS011;49111;51.028;4.218;2022-12-10T16:04:49;42.00;;;20.80;;
62911;SDS011;49111;51.028;4.218;2022-12-10T16:07:15;44.95;;;19.95;;
62911;SDS011;49111;51.028;4.218;2022-12-10T16:09:42;42.95;;;20.05;;
62911;SDS011;49111;51.028;4.218;2022-12-10T16:12:13;40.55;;;18.65;;
62911;SDS011;49111;51.028;4.218;2022-12-10T16:14:40;38.35;;;19.08;;
62911;SDS011;49111;51.028;4.218;2022-12-10T16:17:16;37.15;;;17.75;;
62911;SDS011;49111;51.028;4.218;2022-12-10T16:19:42;33.72;;;16.50;;
62911;SDS011;49111;51.028;4.218;2022-12-10T16:22:08;32.90;;;19.15;;
62911;SDS011;49111;51.028;4.218;2022-12-10T16:24:34;39.67;;;19.08;;
62911;SDS011;49111;51.028;4.218;2022-12-10T16:27:00;41.17;;;19.63;;
62911;SDS011;49111;51.028;4.218;2022-12-10T16:29:26;35.38;;;17.58;;
62911;SDS011;49111;51.028;4.218;2022-12-10T16:31:52;43.70;;;16.85;;
62911;SDS011;49111;51.028;4.218;2022-12-10T16:34:18;37.70;;;18.02;;
62911;SDS011;49111;51.028;4.218;2022-12-10T16:36:43;31.00;;;16.98;;
62911;SDS011;49111;51.028;4.218;2022-12-10T16:39:09;40.67;;;18.88;;
62911;SDS011;49111;51.028;4.218;2022-12-10T16:41:36;45.72;;;18.35;;
62911;SDS011;49111;51.028;4.218;2022-12-10T16:44:02;32.80;;;16.75;;
62911;SDS011;49111;51.028;4.218;2022-12-10T16:46:28;42.60;;;18.83;;
62911;SDS011;49111;51.028;4.218;2022-12-10T16:48:53;40.88;;;20.73;;
62911;SDS011;49111;51.028;4.218;2022-12-10T16:51:24;37.70;;;18.63;;
62911;SDS011;49111;51.028;4.218;2022-12-10T16:53:56;49.65;;;19.73;;
62911;SDS011;49111;51.028;4.218;2022-12-10T16:56:22;39.78;;;19.80;;
62911;SDS011;49111;51.028;4.218;2022-12-10T16:58:48;39.72;;;19.10;;
62911;SDS011;49111;51.028;4.218;2022-12-10T17:01:21;33.88;;;18.50;;
62911;SDS011;49111;51.028;4.218;2022-12-10T17:03:49;41.40;;;19.83;;
62911;SDS011;49111;51.028;4.218;2022-12-10T17:06:16;44.63;;;20.67;;
62911;SDS011;49111;51.028;4.218;2022-12-10T17:08:42;41.92;;;19.70;;
62911;SDS011;49111;51.028;4.218;2022-12-10T17:11:22;47.40;;;20.98;;
62911;SDS011;49111;51.028;4.218;2022-12-10T17:16:49;44.58;;;19.55;;
62911;SDS011;49111;51.028;4.218;2022-12-10T17:19:15;44.30;;;22.48;;
62911;SDS011;49111;51.028;4.218;2022-12-10T17:21:41;44.38;;;22.42;;
62911;SDS011;49111;51.028;4.218;2022-12-10T17:24:07;42.90;;;20.33;;
62911;SDS011;49111;51.028;4.218;2022-12-10T17:26:34;48.22;;;23.08;;
62911;SDS011;49111;51.028;4.218;2022-12-10T17:29:08;46.45;;;23.55;;
62911;SDS011;49111;51.028;4.218;2022-12-10T17:34:22;41.88;;;19.65;;
62911;SDS011;49111;51.028;4.218;2022-12-10T17:36:49;47.42;;;21.15;;
62911;SDS011;49111;51.028;4.218;2022-12-10T17:39:16;46.50;;;21.80;;
62911;SDS011;49111;51.028;4.218;2022-12-10T17:41:44;43.42;;;22.83;;
62911;SDS011;49111;51.028;4.218;2022-12-10T17:44:10;45.25;;;20.90;;
62911;SDS011;49111;51.028;4.218;2022-12-10T17:46:35;45.25;;;21.85;;
62911;SDS011;49111;51.028;4.218;2022-12-10T17:49:02;44.88;;;19.95;;
62911;SDS011;49111;51.028;4.218;2022-12-10T17:51:28;44.25;;;23.50;;
62911;SDS011;49111;51.028;4.218;2022-12-10T17:53:56;37.50;;;22.65;;
62911;SDS011;49111;51.028;4.218;2022-12-10T17:56:24;45.15;;;23.48;;
62911;SDS011;49111;51.028;4.218;2022-12-10T17:58:54;42.20;;;22.55;;
62911;SDS011;49111;51.028;4.218;2022-12-10T18:01:20;35.28;;;18.83;;
62911;SDS011;49111;51.028;4.218;2022-12-10T18:03:46;38.10;;;17.33;;
62911;SDS011;49111;51.028;4.218;2022-12-10T18:06:17;38.38;;;20.13;;
62911;SDS011;49111;51.028;4.218;2022-12-10T18:08:44;35.88;;;21.83;;
62911;SDS011;49111;51.028;4.218;2022-12-10T18:11:14;34.10;;;18.77;;
62911;SDS011;49111;51.028;4.218;2022-12-10T18:13:41;35.13;;;18.50;;
62911;SDS011;49111;51.028;4.218;2022-12-10T18:16:18;45.40;;;21.33;;
62911;SDS011;49111;51.028;4.218;2022-12-10T18:18:54;35.58;;;19.02;;
62911;SDS011;49111;51.028;4.218;2022-12-10T18:21:21;37.63;;;18.92;;
62911;SDS011;49111;51.028;4.218;2022-12-10T18:23:47;35.22;;;17.73;;
62911;SDS011;49111;51.028;4.218;2022-12-10T18:26:15;30.90;;;17.52;;
62911;SDS011;49111;51.028;4.218;2022-12-10T18:28:45;31.65;;;17.35;;
62911;SDS011;49111;51.028;4.218;2022-12-10T18:31:14;36.45;;;20.13;;
62911;SDS011;49111;51.028;4.218;2022-12-10T18:33:47;35.08;;;19.60;;
62911;SDS011;49111;51.028;4.218;2022-12-10T18:36:15;30.33;;;19.35;;
62911;SDS011;49111;51.028;4.218;2022-12-10T18:38:43;33.25;;;16.83;;
62911;SDS011;49111;51.028;4.218;2022-12-10T18:41:11;35.15;;;18.88;;
62911;SDS011;49111;51.028;4.218;2022-12-10T18:43:38;33.25;;;17.83;;
62911;SDS011;49111;51.028;4.218;2022-12-10T18:46:04;33.83;;;18.92;;
62911;SDS011;49111;51.028;4.218;2022-12-10T18:48:30;34.05;;;19.02;;
62911;SDS011;49111;51.028;4.218;2022-12-10T18:50:56;32.05;;;18.13;;
62911;SDS011;49111;51.028;4.218;2022-12-10T18:53:22;34.42;;;17.63;;
62911;SDS011;49111;51.028;4.218;2022-12-10T18:55:48;31.45;;;19.55;;
62911;SDS011;49111;51.028;4.218;2022-12-10T18:58:14;32.85;;;18.73;;
62911;SDS011;49111;51.028;4.218;2022-12-10T19:00:39;33.03;;;19.73;;
62911;SDS011;49111;51.028;4.218;2022-12-10T19:03:05;34.08;;;17.10;;
62911;SDS011;49111;51.028;4.218;2022-12-10T19:05:32;23.67;;;15.45;;
62911;SDS011;49111;51.028;4.218;2022-12-10T19:07:58;30.90;;;15.60;;
62911;SDS011;49111;51.028;4.218;2022-12-10T19:10:25;29.83;;;17.15;;
62911;SDS011;49111;51.028;4.218;2022-12-10T19:12:51;23.90;;;14.38;;
62911;SDS011;49111;51.028;4.218;2022-12-10T19:15:18;25.90;;;16.45;;
62911;SDS011;49111;51.028;4.218;2022-12-10T19:17:45;25.85;;;14.98;;
62911;SDS011;49111;51.028;4.218;2022-12-10T19:20:12;25.60;;;14.13;;
62911;SDS011;49111;51.028;4.218;2022-12-10T19:22:47;26.80;;;15.10;;
